Time;durP1;ratioP1;P1;durP2;ratioP2;P2;SDS_P1;SDS_P2;PMS_P1;PMS_P2;Temp;Humidity;BMP_temperature;BMP_pressure;BME280_temperature;BME280_humidity;BME280_pressure;Samples;Min_cycle;Max_cycle;Signal;HPM_P1;HPM_P2
2022/06/20 00:00:15;;;;;;;10.60;1.80;;;;;;;-145.18;100.00;46658.44;4858980;29;20064;-79
2022/06/20 00:02:45;;;;;;;13.00;1.80;;;;;;;-145.18;100.00;46654.53;4858757;29;20045;-80
2022/06/20 00:05:18;;;;;;;8.27;2.33;;;;;;;-145.18;100.00;46654.53;4858804;29;20033;-80
2022/06/20 00:07:45;;;;;;;9.33;1.67;;;;;;;-145.18;100.00;46652.59;4858838;29;20036;-79
2022/06/20 00:10:12;;;;;;;8.33;2.00;;;;;;;-145.18;100.00;46654.53;4858728;29;20483;-79
2022/06/20 00:12:38;;;;;;;15.50;2.40;;;;;;;-145.18;100.00;46656.50;4858734;29;20044;-80
2022/06/20 00:15:04;;;;;;;9.50;2.30;;;;;;;-145.18;100.00;46650.63;4858385;29;20069;-79
2022/06/20 00:17:29;;;;;;;9.87;2.23;;;;;;;-145.18;100.00;46656.50;4854298;29;20049;-78
2022/06/20 00:19:55;;;;;;;11.10;1.80;;;;;;;-145.18;100.00;46652.59;4858162;29;20547;-78
2022/06/20 00:22:20;;;;;;;10.87;1.83;;;;;;;-145.18;100.00;46650.63;4858264;29;20380;-80
2022/06/20 00:24:45;;;;;;;11.97;2.40;;;;;;;-145.18;100.00;46652.59;4857492;29;20531;-79
2022/06/20 00:27:11;;;;;;;10.57;2.10;;;;;;;-145.18;100.00;46650.63;4858291;29;20066;-80
2022/06/20 00:29:38;;;;;;;14.60;2.37;;;;;;;-145.18;100.00;46650.63;4858541;29;20057;-79
2022/06/20 00:32:05;;;;;;;8.77;1.90;;;;;;;-145.18;100.00;46650.63;4858216;29;20037;-79
2022/06/20 00:34:30;;;;;;;11.43;2.93;;;;;;;-145.18;100.00;46648.69;4858539;29;20044;-80
2022/06/20 00:36:56;;;;;;;7.53;1.90;;;;;;;-145.18;100.00;46650.63;4857984;29;20458;-80
2022/06/20 00:39:22;;;;;;;7.67;1.70;;;;;;;-145.18;100.00;46648.69;4855665;29;20098;-79
2022/06/20 00:41:49;;;;;;;7.57;2.47;;;;;;;-145.18;100.00;46648.69;4858340;29;20037;-79
2022/06/20 00:44:32;;;;;;;14.60;2.20;;;;;;;-145.18;100.00;46646.72;4858192;29;20045;-80
2022/06/20 00:47:03;;;;;;;10.03;2.13;;;;;;;-145.18;100.00;46654.53;4840887;29;20508;-80
2022/06/20 00:49:39;;;;;;;14.57;2.80;;;;;;;-145.18;100.00;46650.63;4858356;29;20045;-80
2022/06/20 00:52:23;;;;;;;14.57;2.33;;;;;;;-145.18;100.00;46648.69;4858160;29;20034;-80
2022/06/20 00:54:53;;;;;;;10.83;2.20;;;;;;;-145.18;100.00;46648.69;4858407;29;20076;-79
2022/06/20 00:57:27;;;;;;;9.00;2.00;;;;;;;-145.18;100.00;46646.72;4857941;29;20188;-79
2022/06/20 01:00:00;;;;;;;8.13;2.17;;;;;;;-145.18;100.00;46650.63;4858379;29;20112;-80
2022/06/20 01:02:30;;;;;;;10.23;2.80;;;;;;;-145.18;100.00;46652.59;4858104;29;20120;-81
2022/06/20 01:05:22;;;;;;;15.73;2.97;;;;;;;-145.18;100.00;46642.81;4858005;29;20135;-81
2022/06/20 01:07:57;;;;;;;6.90;2.13;;;;;;;-145.18;100.00;46648.69;4858029;29;20025;-80
2022/06/20 01:10:25;;;;;;;6.93;2.05;;;;;;;-145.18;100.00;46648.69;4857761;29;20070;-80
2022/06/20 01:13:00;;;;;;;11.20;2.20;;;;;;;-145.18;100.00;46646.72;4858012;29;20045;-80
2022/06/20 01:15:33;;;;;;;12.93;2.47;;;;;;;-145.18;100.00;46650.63;4858264;29;20134;-80
2022/06/20 01:17:58;;;;;;;10.40;2.10;;;;;;;-145.18;100.00;46650.63;4857687;29;20043;-81
2022/06/20 01:20:29;;;;;;;6.83;1.67;;;;;;;-145.18;100.00;46648.69;4858185;29;20037;-80
2022/06/20 01:23:22;;;;;;;10.33;2.73;;;;;;;-145.18;100.00;46650.63;4857582;29;20033;-80
2022/06/20 01:26:17;;;;;;;9.13;2.00;;;;;;;-145.18;100.00;46650.63;4858081;29;20073;-81
2022/06/20 01:28:47;;;;;;;13.23;2.23;;;;;;;-145.18;100.00;46648.69;4858110;29;20395;-80
2022/06/20 01:31:15;;;;;;;10.37;2.23;;;;;;;-145.18;100.00;46652.59;4857981;29;20388;-79
2022/06/20 01:33:41;;;;;;;12.13;2.53;;;;;;;-145.18;100.00;46648.69;4861556;29;20136;-80
2022/06/20 01:38:53;;;;;;;8.40;2.40;;;;;;;-145.18;100.00;46648.69;4861970;29;20512;-80
2022/06/20 01:44:05;;;;;;;11.73;2.20;;;;;;;-145.18;100.00;46648.69;4861608;29;20048;-81
2022/06/20 01:46:33;;;;;;;9.77;2.53;;;;;;;-145.18;100.00;46646.72;4861289;29;20048;-80
2022/06/20 01:49:03;;;;;;;7.70;2.83;;;;;;;-145.18;100.00;46646.72;4861301;29;20113;-80
2022/06/20 01:51:38;;;;;;;14.07;3.20;;;;;;;-145.18;100.00;46650.63;4861245;29;20061;-80
2022/06/20 01:54:03;;;;;;;10.47;2.43;;;;;;;-145.18;100.00;46646.72;4861294;29;20030;-79
2022/06/20 01:56:29;;;;;;;14.60;2.87;;;;;;;-145.18;100.00;46644.78;4861208;29;20041;-80
2022/06/20 01:59:03;;;;;;;11.43;2.87;;;;;;;-145.18;100.00;46646.72;4861151;29;20577;-80
2022/06/20 02:04:04;;;;;;;10.67;3.27;;;;;;;-145.18;100.00;46646.72;4888387;23;20421;-79
2022/06/20 02:06:31;;;;;;;11.13;3.30;;;;;;;-145.18;100.00;46640.88;4879729;29;20094;-78
2022/06/20 02:08:57;;;;;;;14.13;2.80;;;;;;;-145.18;100.00;46644.78;4879154;29;20029;-78
2022/06/20 02:11:33;;;;;;;9.77;3.23;;;;;;;-145.18;100.00;46644.78;4879830;29;20029;-78
2022/06/20 02:14:05;;;;;;;13.80;3.40;;;;;;;-145.18;100.00;46642.81;4879298;29;20426;-79
2022/06/20 02:16:34;;;;;;;10.13;3.47;;;;;;;-145.18;100.00;46642.81;4880038;29;20033;-78
2022/06/20 02:19:03;;;;;;;15.17;3.53;;;;;;;-145.18;100.00;46642.81;4879219;29;20050;-77
2022/06/20 02:21:31;;;;;;;9.47;3.10;;;;;;;-145.18;100.00;46648.69;4879478;29;20043;-77
2022/06/20 02:24:06;;;;;;;14.03;3.83;;;;;;;-145.18;100.00;46644.78;4879235;29;20029;-78
2022/06/20 02:26:35;;;;;;;12.33;3.67;;;;;;;-145.18;100.00;46640.88;4879497;29;20397;-78
2022/06/20 02:29:21;;;;;;;12.37;3.63;;;;;;;-145.18;100.00;46642.81;4879175;29;20040;-78
2022/06/20 02:31:50;;;;;;;13.65;3.92;;;;;;;-145.18;100.00;46644.78;4879426;29;20025;-77
2022/06/20 02:34:16;;;;;;;14.53;3.60;;;;;;;-145.18;100.00;46648.69;4878904;29;20599;-79
2022/06/20 02:36:41;;;;;;;9.60;3.43;;;;;;;-145.18;100.00;46640.88;4879468;29;20033;-78
2022/06/20 02:39:07;;;;;;;15.87;4.03;;;;;;;-145.18;100.00;46640.88;4879040;29;20033;-79
2022/06/20 02:41:34;;;;;;;12.63;4.90;;;;;;;-145.18;100.00;46644.78;4879259;29;20398;-79
2022/06/20 02:44:09;;;;;;;11.87;4.17;;;;;;;-145.18;100.00;46640.88;4878603;29;20033;-79
2022/06/20 02:46:35;;;;;;;14.77;4.35;;;;;;;-145.18;100.00;46644.78;4879287;29;20557;-78
2022/06/20 02:49:03;;;;;;;12.40;3.83;;;;;;;-145.18;100.00;46642.81;4878528;29;20056;-78
2022/06/20 02:51:35;;;;;;;19.03;4.40;;;;;;;-145.18;100.00;46642.81;4897901;29;20040;-78
2022/06/20 02:54:04;;;;;;;14.67;3.97;;;;;;;-145.18;100.00;46640.88;4897346;29;20099;-78
2022/06/20 02:56:36;;;;;;;13.57;4.73;;;;;;;-145.18;100.00;46677.97;4897606;29;20104;-78
2022/06/20 02:59:10;;;;;;;14.10;4.20;;;;;;;-145.18;100.00;46638.91;4897312;29;20072;-81
2022/06/20 03:02:01;;;;;;;15.47;4.03;;;;;;;-145.18;100.00;46676.03;4897541;29;20096;-82
2022/06/20 03:04:29;;;;;;;14.73;4.33;;;;;;;-145.18;100.00;46642.81;4897850;29;20044;-78
2022/06/20 03:06:59;;;;;;;19.87;4.00;;;;;;;-145.18;100.00;46638.91;4897323;29;20041;-78
2022/06/20 03:09:34;;;;;;;12.40;3.97;;;;;;;-145.18;100.00;46638.91;4897511;29;20028;-78
2022/06/20 03:12:02;;;;;;;17.23;4.80;;;;;;;-145.18;100.00;46642.81;4896757;29;20040;-77
2022/06/20 03:14:36;;;;;;;22.93;5.07;;;;;;;-145.18;100.00;46638.91;4897489;29;20065;-78
2022/06/20 03:17:03;;;;;;;15.07;4.40;;;;;;;-145.18;100.00;46640.88;4897036;29;20039;-79
2022/06/20 03:19:32;;;;;;;21.47;5.03;;;;;;;-145.18;100.00;46642.81;4897194;29;20541;-79
2022/06/20 03:22:01;;;;;;;14.60;4.30;;;;;;;-145.18;100.00;46644.78;4896527;29;20032;-78
2022/06/20 03:24:28;;;;;;;15.73;4.43;;;;;;;-145.18;100.00;46640.88;4897419;29;20193;-78
2022/06/20 03:26:55;;;;;;;16.37;4.43;;;;;;;-145.18;100.00;46638.91;4897521;29;20040;-78
2022/06/20 03:29:21;;;;;;;16.00;4.10;;;;;;;-145.18;100.00;46640.88;4897115;29;20059;-78
2022/06/20 03:31:47;;;;;;;9.13;4.00;;;;;;;-145.18;100.00;46636.94;4897072;29;20120;-78
2022/06/20 03:34:13;;;;;;;15.33;4.63;;;;;;;-145.18;100.00;46638.91;4896766;29;20032;-78
2022/06/20 03:36:41;;;;;;;7.60;3.93;;;;;;;-145.18;100.00;46644.78;4897352;29;20056;-79
2022/06/20 03:39:07;;;;;;;15.97;4.33;;;;;;;-145.18;100.00;46640.88;4896443;29;20414;-78
2022/06/20 03:41:33;;;;;;;16.10;5.40;;;;;;;-145.18;100.00;46642.81;4896907;29;20029;-78
2022/06/20 03:44:36;;;;;;;10.20;2.80;;;;;;;-145.18;100.00;46640.88;4896497;29;20583;-77
2022/06/20 03:47:07;;;;;;;16.97;3.77;;;;;;;-145.18;100.00;46642.81;4893740;29;20425;-78
2022/06/20 03:49:38;;;;;;;12.73;4.07;;;;;;;-145.18;100.00;46644.78;4896891;29;20083;-78
2022/06/20 03:52:20;;;;;;;15.43;3.20;;;;;;;-145.18;100.00;46644.78;4896929;29;20088;-79
2022/06/20 03:54:57;;;;;;;13.20;3.93;;;;;;;-145.18;100.00;46642.81;4896381;29;20048;-78
2022/06/20 03:57:32;;;;;;;12.87;3.60;;;;;;;-145.18;100.00;46648.69;4896653;29;20037;-76
2022/06/20 04:00:04;;;;;;;18.15;3.70;;;;;;;-145.18;100.00;46642.81;4894957;29;20493;-78
2022/06/20 04:02:37;;;;;;;14.93;3.40;;;;;;;-145.18;100.00;46638.91;4863353;29;20110;-78
2022/06/20 04:05:24;;;;;;;19.20;3.77;;;;;;;-145.18;100.00;46642.81;4851132;29;20431;-77
2022/06/20 04:07:59;;;;;;;11.27;3.10;;;;;;;-145.18;100.00;46644.78;4849737;29;20037;-81
2022/06/20 04:13:24;;;;;;;16.97;3.03;;;;;;;-145.18;100.00;46644.78;4845815;29;20077;-79
2022/06/20 04:16:05;;;;;;;12.03;2.73;;;;;;;-145.18;100.00;46646.72;4848494;29;20522;-77
2022/06/20 04:18:39;;;;;;;11.87;2.60;;;;;;;-145.18;100.00;46646.72;4848266;29;20566;-79
2022/06/20 04:21:21;;;;;;;12.53;3.33;;;;;;;-145.18;100.00;46646.72;4848635;29;20026;-79
2022/06/20 04:24:01;;;;;;;12.03;3.50;;;;;;;-145.18;100.00;46646.72;4844876;29;20038;-79
2022/06/20 04:26:35;;;;;;;14.87;2.93;;;;;;;-145.18;100.00;46648.69;4851162;29;20038;-79
2022/06/20 04:29:04;;;;;;;8.10;2.80;;;;;;;-145.18;100.00;46646.72;4849977;29;20382;-79
2022/06/20 04:31:51;;;;;;;14.60;2.97;;;;;;;-145.18;100.00;46642.81;4849385;29;20091;-79
2022/06/20 04:34:28;;;;;;;12.43;3.50;;;;;;;-145.18;100.00;46646.72;4849772;29;20155;-79
2022/06/20 04:37:22;;;;;;;9.83;2.53;;;;;;;-145.18;100.00;46648.69;4848399;29;20032;-79
2022/06/20 04:40:04;;;;;;;13.57;3.70;;;;;;;-145.18;100.00;46642.81;4847800;29;20519;-79
2022/06/20 04:42:45;;;;;;;14.87;2.70;;;;;;;-145.18;100.00;46646.72;4851342;29;20537;-79
2022/06/20 04:45:45;;;;;;;7.37;2.67;;;;;;;-145.18;100.00;46648.69;4849802;29;20029;-80
2022/06/20 04:48:19;;;;;;;14.73;2.87;;;;;;;-145.18;100.00;46650.63;4835065;29;20124;-79
2022/06/20 04:50:48;;;;;;;9.47;2.27;;;;;;;-145.18;100.00;46646.72;4850619;29;20026;-80
2022/06/20 04:53:18;;;;;;;12.10;2.40;;;;;;;-145.18;100.00;46650.63;4847973;29;20100;-81
2022/06/20 04:55:48;;;;;;;6.57;2.20;;;;;;;-145.18;100.00;46650.63;4850239;29;20032;-80
2022/06/20 04:58:19;;;;;;;10.53;2.60;;;;;;;-145.18;100.00;46648.69;4848663;29;20032;-80
2022/06/20 05:00:47;;;;;;;10.30;3.20;;;;;;;-145.18;100.00;46654.53;4851217;29;20467;-79
2022/06/20 05:03:39;;;;;;;9.47;2.67;;;;;;;-145.18;100.00;46652.59;4866614;29;20418;-80
2022/06/20 05:06:09;;;;;;;7.83;2.10;;;;;;;-145.18;100.00;46652.59;4876200;29;20049;-80
2022/06/20 05:08:39;;;;;;;11.70;2.63;;;;;;;-145.18;100.00;46650.63;4876005;29;20045;-80
2022/06/20 05:11:10;;;;;;;10.83;2.63;;;;;;;-145.18;100.00;46652.59;4859839;29;20566;-80
2022/06/20 05:13:47;;;;;;;8.47;2.20;;;;;;;-145.18;100.00;46656.50;4874601;29;20457;-80
2022/06/20 05:16:19;;;;;;;9.00;2.60;;;;;;;-145.18;100.00;46650.63;4883455;29;20029;-80
2022/06/20 05:18:50;;;;;;;12.33;2.37;;;;;;;-145.18;100.00;46650.63;4895045;29;20487;-80
2022/06/20 05:21:20;;;;;;;11.07;2.27;;;;;;;-145.18;100.00;46654.53;4895311;29;20088;-80
2022/06/20 05:23:49;;;;;;;15.03;2.60;;;;;;;-145.18;100.00;46652.59;4894032;29;20413;-80
2022/06/20 05:26:20;;;;;;;12.33;2.93;;;;;;;-145.18;100.00;46652.59;4895339;29;20501;-80
2022/06/20 05:28:49;;;;;;;11.03;2.43;;;;;;;-145.18;100.00;46656.50;4877618;29;20029;-79
2022/06/20 05:31:20;;;;;;;12.07;2.93;;;;;;;-145.18;100.00;46654.53;4876174;29;20037;-79
2022/06/20 05:33:54;;;;;;;11.77;2.50;;;;;;;-145.18;100.00;46654.53;4876625;29;20036;-80
2022/06/20 05:36:30;;;;;;;10.43;2.40;;;;;;;-145.18;100.00;46656.50;4876463;29;20033;-79
2022/06/20 05:39:04;;;;;;;8.90;2.40;;;;;;;-145.18;100.00;46648.69;4876534;29;20025;-79
2022/06/20 05:41:29;;;;;;;15.13;3.17;;;;;;;-145.18;100.00;46654.53;4876804;29;20037;-79
2022/06/20 05:43:56;;;;;;;13.63;3.47;;;;;;;-145.18;100.00;46660.41;4876328;29;20052;-79
2022/06/20 05:46:31;;;;;;;9.83;2.67;;;;;;;-145.18;100.00;46660.41;4876682;29;20029;-79
2022/06/20 05:49:04;;;;;;;8.05;2.58;;;;;;;-145.18;100.00;46656.50;4876419;29;20017;-79
2022/06/20 05:51:35;;;;;;;10.67;3.00;;;;;;;-145.18;100.00;46654.53;4876680;29;20699;-79
2022/06/20 05:54:10;;;;;;;14.83;3.17;;;;;;;-145.18;100.00;46656.50;4876509;29;20033;-79
2022/06/20 05:56:42;;;;;;;14.82;3.10;;;;;;;-145.18;100.00;46654.53;4876344;29;20049;-79
2022/06/20 05:59:24;;;;;;;8.57;2.60;;;;;;;-145.18;100.00;46660.41;4875820;29;20079;-79
2022/06/20 06:01:49;;;;;;;14.57;2.90;;;;;;;-145.18;100.00;46652.59;4876672;29;20033;-79
2022/06/20 06:04:39;;;;;;;12.87;3.07;;;;;;;-145.18;100.00;46656.50;4874922;29;20064;-79
2022/06/20 06:07:18;;;;;;;12.17;3.27;;;;;;;-145.18;100.00;46664.31;4876454;29;20131;-78
2022/06/20 06:10:29;;;;;;;18.47;4.07;;;;;;;-145.18;100.00;46660.41;4876115;29;20061;-80
2022/06/20 06:13:19;;;;;;;11.33;3.07;;;;;;;-145.18;100.00;46660.41;4876121;29;20589;-79
2022/06/20 06:18:49;;;;;;;12.15;2.75;;;;;;;-145.18;100.00;46660.41;4878860;29;20044;-79
2022/06/20 06:21:15;;;;;;;11.00;3.00;;;;;;;-145.18;100.00;46660.41;4880000;29;20029;-79
2022/06/20 06:23:41;;;;;;;8.73;3.20;;;;;;;-145.18;100.00;46660.41;4878603;29;20025;-79
2022/06/20 06:26:09;;;;;;;8.73;3.13;;;;;;;-145.18;100.00;46654.53;4878991;29;20041;-79
2022/06/20 06:28:35;;;;;;;14.23;2.97;;;;;;;-145.18;100.00;46658.44;4877455;29;20037;-79
2022/06/20 06:31:09;;;;;;;14.63;2.70;;;;;;;-145.18;100.00;46642.81;4876203;29;20029;-79
2022/06/20 06:34:13;;;;;;;14.33;3.37;;;;;;;-145.18;100.00;46640.88;4877975;29;20457;-79
2022/06/20 06:36:44;;;;;;;11.23;2.70;;;;;;;-145.18;100.00;46619.38;4874699;29;20089;-79
2022/06/20 06:39:23;;;;;;;9.87;2.57;;;;;;;-145.18;100.00;46635.00;4877464;29;20415;-79
2022/06/20 06:41:54;;;;;;;16.17;3.10;;;;;;;-145.18;100.00;46623.28;4877111;29;20100;-79
2022/06/20 06:44:42;;;;;;;15.70;2.43;;;;;;;-145.18;100.00;46572.50;4876653;29;20033;-79
2022/06/20 06:47:33;;;;;;;8.90;2.57;;;;;;;-145.18;100.00;46564.69;4878963;29;20192;-79
2022/06/20 06:50:51;;;;;;;12.13;2.77;;;;;;;-145.18;100.00;46554.91;4878535;29;20062;-79
2022/06/20 06:53:32;;;;;;;12.57;2.87;;;;;;;-145.18;100.00;46566.63;4877629;29;20053;-79
2022/06/20 06:56:04;;;;;;;9.20;3.33;;;;;;;-145.18;100.00;46560.78;4898631;29;20088;-79
2022/06/20 06:58:43;;;;;;;6.30;2.47;;;;;;;-145.18;100.00;46568.59;4897527;29;20039;-80
2022/06/20 07:01:14;;;;;;;13.43;3.17;;;;;;;-145.18;100.00;46547.09;4897039;29;20036;-79
2022/06/20 07:03:49;;;;;;;11.90;3.60;;;;;;;-145.18;100.00;46545.16;4896939;29;20589;-79
2022/06/20 07:06:30;;;;;;;8.23;2.75;;;;;;;-145.18;100.00;46543.19;4897882;29;20431;-79
2022/06/20 07:09:08;;;;;;;8.43;2.40;;;;;;;-145.18;100.00;46539.28;4897568;29;20542;-79
2022/06/20 07:11:38;;;;;;;6.27;2.40;;;;;;;-145.18;100.00;46539.28;4897389;29;20035;-79
2022/06/20 07:14:15;;;;;;;11.50;2.77;;;;;;;-145.18;100.00;46543.19;4897202;29;20071;-79
2022/06/20 07:16:43;;;;;;;6.23;2.17;;;;;;;-145.18;100.00;46535.38;4897613;29;20032;-79
2022/06/20 07:19:12;;;;;;;11.90;2.73;;;;;;;-145.18;100.00;46537.34;4896722;29;20405;-79
2022/06/20 07:21:39;;;;;;;12.00;3.20;;;;;;;-145.18;100.00;46537.34;4897448;29;20036;-79
2022/06/20 07:24:15;;;;;;;10.70;3.03;;;;;;;-145.18;100.00;46539.28;4896491;29;20051;-79
2022/06/20 07:27:08;;;;;;;15.18;4.00;;;;;;;-145.18;100.00;46541.25;4897229;29;20036;-79
2022/06/20 07:29:43;;;;;;;10.43;3.40;;;;;;;-145.18;100.00;46549.06;4895451;29;20032;-79
2022/06/20 07:32:12;;;;;;;7.47;2.70;;;;;;;-145.18;100.00;46551.00;4878059;29;20033;-80
2022/06/20 07:34:43;;;;;;;8.37;3.00;;;;;;;-145.18;100.00;46552.97;4878019;29;20033;-79
2022/06/20 07:37:20;;;;;;;12.23;3.20;;;;;;;-145.18;100.00;46562.72;4876907;29;20029;-79
2022/06/20 07:40:04;;;;;;;11.73;2.93;;;;;;;-145.18;100.00;46552.97;4877539;29;20062;-80
2022/06/20 07:42:35;;;;;;;13.13;2.90;;;;;;;-145.18;100.00;46551.00;4877524;29;20520;-79
2022/06/20 07:45:10;;;;;;;12.03;2.77;;;;;;;-145.18;100.00;46554.91;4877958;29;20084;-79
2022/06/20 07:47:49;;;;;;;12.20;4.03;;;;;;;-145.18;100.00;46560.78;4878095;29;20112;-79
2022/06/20 07:50:21;;;;;;;8.93;2.57;;;;;;;-145.18;100.00;46568.59;4877302;29;20053;-80
2022/06/20 07:52:58;;;;;;;8.00;2.80;;;;;;;-145.18;100.00;46552.97;4877855;29;20081;-79
2022/06/20 07:55:29;;;;;;;9.83;2.73;;;;;;;-145.18;100.00;46566.63;4877742;29;20021;-79
2022/06/20 07:58:26;;;;;;;12.60;3.27;;;;;;;-145.18;100.00;46556.88;4877952;29;20121;-79
2022/06/20 08:00:54;;;;;;;17.37;3.40;;;;;;;-145.18;100.00;46562.72;4877210;29;20040;-79
2022/06/20 08:03:49;;;;;;;9.20;2.50;;;;;;;-145.18;100.00;46570.53;4876924;29;20053;-79
2022/06/20 08:06:23;;;;;;;15.70;3.40;;;;;;;-145.18;100.00;46562.72;4877597;29;20503;-79
2022/06/20 08:09:23;;;;;;;9.50;2.53;;;;;;;-145.18;100.00;46568.59;4877224;29;20033;-79
2022/06/20 08:12:02;;;;;;;10.47;2.90;;;;;;;-145.18;100.00;46588.13;4854971;29;20048;-79
2022/06/20 08:14:46;;;;;;;9.27;2.43;;;;;;;-145.18;100.00;46648.69;4877025;29;20033;-79
2022/06/20 08:17:13;;;;;;;12.13;3.80;;;;;;;-145.18;100.00;46633.06;4877370;29;20029;-79
2022/06/20 08:19:41;;;;;;;11.67;2.50;;;;;;;-145.18;100.00;46590.06;4877279;29;20112;-79
2022/06/20 08:22:43;;;;;;;11.10;2.37;;;;;;;-145.18;100.00;46597.88;4877432;29;20482;-79
2022/06/20 08:25:21;;;;;;;9.10;2.87;;;;;;;-145.18;100.00;46590.06;4876936;29;20459;-79
2022/06/20 08:28:02;;;;;;;14.27;2.83;;;;;;;-145.18;100.00;46633.06;4861035;29;20059;-79
2022/06/20 08:30:43;;;;;;;10.67;2.10;;;;;;;-145.18;100.00;46619.38;4876637;29;20041;-78
2022/06/20 08:33:14;;;;;;;8.87;2.33;;;;;;;-145.18;100.00;46613.50;4877052;29;20815;-79
2022/06/20 08:35:56;;;;;;;10.70;2.47;;;;;;;-145.18;100.00;46629.13;4877397;29;20497;-79
2022/06/20 08:38:31;;;;;;;8.60;1.90;;;;;;;-145.18;100.00;46660.41;4876705;29;20033;-79
2022/06/20 08:41:27;;;;;;;8.45;2.03;;;;;;;-145.18;100.00;46748.28;4876051;29;20551;-79
2022/06/20 08:44:24;;;;;;;10.80;2.25;;;;;;;-145.18;100.00;46662.34;4876511;29;20041;-79
2022/06/20 08:47:14;;;;;;;13.30;3.50;;;;;;;-145.18;100.00;46656.50;4876338;29;20048;-79
2022/06/20 08:50:16;;;;;;;6.50;2.23;;;;;;;-145.18;100.00;46664.31;4876762;29;20506;-79
2022/06/20 08:52:59;;;;;;;9.33;2.67;;;;;;;-145.18;100.00;46654.53;4865653;29;20049;-78
2022/06/20 08:55:31;;;;;;;11.93;2.80;;;;;;;-145.18;100.00;46656.50;4876351;29;20041;-79
2022/06/20 08:58:02;;;;;;;11.07;2.53;;;;;;;-145.18;100.00;46652.59;4877133;29;20049;-79
2022/06/20 09:00:56;;;;;;;13.27;3.37;;;;;;;-145.18;100.00;46674.06;4876399;29;20125;-80
2022/06/20 09:03:42;;;;;;;10.20;2.27;;;;;;;-145.18;100.00;46869.41;4875043;29;20498;-79
2022/06/20 09:06:44;;;;;;;8.10;2.17;;;;;;;-145.18;100.00;47240.56;4876385;29;20506;-79
2022/06/20 09:09:35;;;;;;;10.90;2.27;;;;;;;-145.18;100.00;47260.13;4876922;29;20539;-79
2022/06/20 09:12:16;;;;;;;4.57;1.87;;;;;;;-145.18;100.00;47211.28;4877025;29;20029;-78
2022/06/20 09:14:56;;;;;;;8.23;2.30;;;;;;;-145.18;100.00;47183.94;4875151;29;20025;-79
2022/06/20 09:17:27;;;;;;;5.23;1.93;;;;;;;-145.18;100.00;47172.19;4876700;29;20067;-79
2022/06/20 09:20:18;;;;;;;9.73;2.60;;;;;;;-145.18;100.00;47189.78;4876034;29;20052;-78
2022/06/20 09:22:58;;;;;;;9.27;3.20;;;;;;;-145.18;100.00;47207.38;4876806;29;20025;-79
2022/06/20 09:25:57;;;;;;;5.40;2.03;;;;;;;-145.18;100.00;47299.19;4859213;29;20522;-78
2022/06/20 09:28:47;;;;;;;5.90;2.03;;;;;;;-145.18;100.00;47269.88;4876205;29;20057;-79
2022/06/20 09:31:46;;;;;;;13.87;2.73;;;;;;;-145.18;100.00;47289.41;4875447;29;20067;-79
2022/06/20 09:34:30;;;;;;;8.47;2.53;;;;;;;-145.18;100.00;47254.25;4876185;29;20033;-79
2022/06/20 09:36:58;;;;;;;9.23;3.07;;;;;;;-145.18;100.00;47250.34;4876327;29;20068;-78
2022/06/20 09:39:33;;;;;;;7.00;2.13;;;;;;;-145.18;100.00;47215.19;4875895;29;20041;-78
2022/06/20 09:42:09;;;;;;;10.90;2.20;;;;;;;-145.18;100.00;47195.66;4876660;29;20124;-78
2022/06/20 09:45:03;;;;;;;7.17;1.80;;;;;;;-145.18;100.00;47180.03;4876339;29;20052;-79
2022/06/20 09:47:41;;;;;;;8.03;1.93;;;;;;;-145.18;100.00;47174.16;4876268;29;20490;-79
2022/06/20 09:50:24;;;;;;;6.37;1.90;;;;;;;-145.18;100.00;47156.56;4875122;29;20025;-79
2022/06/20 09:52:58;;;;;;;6.93;2.23;;;;;;;-145.18;100.00;47144.84;4878005;29;20483;-79
2022/06/20 09:56:08;;;;;;;11.80;2.37;;;;;;;-145.18;100.00;47166.34;4879404;29;20033;-79
2022/06/20 09:58:47;;;;;;;6.33;2.27;;;;;;;-145.18;100.00;47160.47;4878780;29;20045;-78
2022/06/20 10:01:28;;;;;;;7.07;2.67;;;;;;;-145.18;100.00;47139.00;4877021;29;20581;-79
2022/06/20 10:04:17;;;;;;;7.57;2.13;;;;;;;-145.18;100.00;47140.94;4876224;29;20049;-78
2022/06/20 10:07:00;;;;;;;9.23;2.33;;;;;;;-145.18;100.00;47129.22;4877655;29;20033;-78
2022/06/20 10:10:04;;;;;;;6.90;1.50;;;;;;;-145.18;100.00;47135.09;4879301;29;20116;-79
2022/06/20 10:13:24;;;;;;;6.33;1.90;;;;;;;-145.18;100.00;47123.38;4877279;29;20834;-78
2022/06/20 10:16:20;;;;;;;9.83;1.63;;;;;;;-145.18;100.00;47117.50;4852419;29;20053;-78
2022/06/20 10:19:00;;;;;;;6.10;1.92;;;;;;;-145.18;100.00;47113.59;4860874;29;20033;-78
2022/06/20 10:22:07;;;;;;;8.17;1.70;;;;;;;-145.18;100.00;47101.88;4861014;29;20483;-78
2022/06/20 10:24:54;;;;;;;4.30;1.60;;;;;;;-145.18;100.00;47092.09;4855118;29;20454;-78
2022/06/20 10:27:41;;;;;;;11.37;2.70;;;;;;;-145.18;100.00;47078.44;4860295;29;20104;-78
2022/06/20 10:30:18;;;;;;;6.83;2.17;;;;;;;-145.18;100.00;47092.09;4860695;29;20030;-78
2022/06/20 10:32:47;;;;;;;4.60;1.60;;;;;;;-145.18;100.00;47183.94;4865330;29;20044;-78
2022/06/20 10:35:13;;;;;;;7.33;1.90;;;;;;;-145.18;100.00;47152.66;4878101;29;20081;-78
2022/06/20 10:37:59;;;;;;;8.43;2.57;;;;;;;-145.18;100.00;47119.47;4879058;29;20033;-78
2022/06/20 10:40:47;;;;;;;6.70;2.03;;;;;;;-145.18;100.00;47090.16;4878586;29;20040;-78
2022/06/20 10:43:23;;;;;;;6.33;1.80;;;;;;;-145.18;100.00;47121.41;4878493;29;20045;-77
2022/06/20 10:46:10;;;;;;;12.10;2.83;;;;;;;-145.18;100.00;47193.69;4878599;29;20776;-78
2022/06/20 10:48:54;;;;;;;5.00;2.10;;;;;;;-145.18;100.00;47123.38;4876901;29;20037;-78
2022/06/20 10:51:54;;;;;;;3.27;1.70;;;;;;;-145.18;100.00;47111.66;4878857;29;20439;-78
2022/06/20 10:54:56;;;;;;;12.00;1.90;;;;;;;-145.18;100.00;47096.00;4878123;29;20040;-78
2022/06/20 10:57:56;;;;;;;6.23;2.10;;;;;;;-145.18;100.00;47101.88;4878831;29;20478;-78
2022/06/20 11:00:26;;;;;;;5.33;2.07;;;;;;;-145.18;100.00;47097.97;4860962;29;20034;-78
2022/06/20 11:03:41;;;;;;;5.57;1.93;;;;;;;-145.18;100.00;47162.44;4874295;29;20037;-77
2022/06/20 11:06:46;;;;;;;6.53;1.77;;;;;;;-145.18;100.00;47086.25;4879149;29;20040;-77
2022/06/20 11:09:46;;;;;;;8.27;1.97;;;;;;;-145.18;100.00;47162.44;4852495;29;20090;-78
2022/06/20 11:12:14;;;;;;;9.67;2.50;;;;;;;-145.18;100.00;47096.00;4878215;29;20036;-77
2022/06/20 11:14:51;;;;;;;7.03;2.30;;;;;;;-145.18;100.00;47125.31;4873949;29;20061;-77
2022/06/20 11:17:30;;;;;;;6.80;2.63;;;;;;;-145.18;100.00;47156.56;4878524;29;20080;-78
2022/06/20 11:20:14;;;;;;;8.93;2.17;;;;;;;-145.18;100.00;47109.69;4877165;29;20233;-77
2022/06/20 11:22:58;;;;;;;9.17;2.10;;;;;;;-145.18;100.00;47103.81;4878499;29;20037;-77
2022/06/20 11:25:41;;;;;;;7.20;2.20;;;;;;;-145.18;100.00;47162.44;4877649;29;20603;-77
2022/06/20 11:28:25;;;;;;;8.67;2.77;;;;;;;-145.18;100.00;47105.78;4878512;29;20115;-77
2022/06/20 11:31:08;;;;;;;7.23;2.00;;;;;;;-145.18;100.00;47088.19;4878065;29;20115;-77
2022/06/20 11:34:06;;;;;;;5.83;1.80;;;;;;;-145.18;100.00;47099.91;4872814;29;20078;-77
2022/06/20 11:36:54;;;;;;;7.67;2.20;;;;;;;-145.18;100.00;47101.88;4861480;29;20037;-77
2022/06/20 11:39:56;;;;;;;5.97;1.87;;;;;;;-145.18;100.00;47101.88;4872402;29;20033;-77
2022/06/20 11:42:30;;;;;;;12.13;2.10;;;;;;;-145.18;100.00;47105.78;4874656;29;20033;-77
2022/06/20 11:45:35;;;;;;;10.50;2.07;;;;;;;-145.18;100.00;47103.81;4877368;29;20041;-77
2022/06/20 11:48:29;;;;;;;12.57;3.03;;;;;;;-145.18;100.00;47101.88;4884076;23;20062;-77
2022/06/20 11:51:00;;;;;;;7.70;2.13;;;;;;;-145.18;100.00;47096.00;4871739;29;20029;-77
2022/06/20 11:53:40;;;;;;;7.20;2.13;;;;;;;-145.18;100.00;47094.06;4868020;29;20037;-77
2022/06/20 11:56:24;;;;;;;8.33;1.97;;;;;;;-145.18;100.00;47088.19;4874393;29;20037;-77
2022/06/20 11:58:56;;;;;;;13.33;3.03;;;;;;;-145.18;100.00;47064.75;4860326;29;20032;-77
2022/06/20 12:01:27;;;;;;;14.17;2.10;;;;;;;-145.18;100.00;47074.53;4873002;29;20033;-77
2022/06/20 12:03:55;;;;;;;9.80;2.30;;;;;;;-145.18;100.00;47094.06;4876177;29;20581;-77